createdAt,value
2023-04-13T00:00:57.313Z,44.93
2023-04-13T00:02:00.385Z,44.87
2023-04-13T00:03:03.956Z,44.85
2023-04-13T00:04:09.308Z,44.74
2023-04-13T00:05:13.118Z,44.67
2023-04-13T00:06:17.128Z,44.67
2023-04-13T00:07:21.735Z,44.61
2023-04-13T00:08:25.079Z,44.55
2023-04-13T00:09:31.753Z,44.53
2023-04-13T00:10:39.598Z,44.53
2023-04-13T00:11:43.977Z,44.52
2023-04-13T00:12:47.893Z,44.47
2023-04-13T00:13:53.739Z,44.46
2023-04-13T00:14:57.488Z,44.45
2023-04-13T00:16:00.785Z,44.40
2023-04-13T00:17:04.748Z,44.44
2023-04-13T00:18:09.415Z,44.44
2023-04-13T00:19:12.535Z,44.43
2023-04-13T00:20:18.493Z,44.42
2023-04-13T00:21:26.076Z,44.45
2023-04-13T00:22:29.801Z,44.41
2023-04-13T00:23:33.621Z,44.42
2023-04-13T00:24:36.844Z,44.44
2023-04-13T00:25:39.794Z,44.38
2023-04-13T00:26:44.568Z,44.41
2023-04-13T00:27:49.897Z,44.39
2023-04-13T00:28:53.184Z,44.36
2023-04-13T00:29:56.152Z,44.38
2023-04-13T00:31:00.356Z,44.54
2023-04-13T00:32:04.183Z,44.56
2023-04-13T00:33:07.083Z,44.67
2023-04-13T00:34:11.120Z,44.73
2023-04-13T00:36:34.281Z,44.83
2023-04-13T00:37:38.121Z,44.86
2023-04-13T00:38:43.668Z,44.93
2023-04-13T00:39:47.306Z,44.96
2023-04-13T00:40:50.758Z,45.00
2023-04-13T00:41:55.322Z,45.05
2023-04-13T00:43:00.707Z,45.05
2023-04-13T00:44:05.664Z,45.07
2023-04-13T00:45:12.564Z,45.11
2023-04-13T00:47:33.455Z,45.22
2023-04-13T00:48:37.004Z,45.24
2023-04-13T00:49:41.682Z,45.25
2023-04-13T00:50:45.242Z,45.30
2023-04-13T00:51:48.690Z,45.31
2023-04-13T00:52:52.034Z,45.32
2023-04-13T00:53:55.593Z,45.35
2023-04-13T00:54:58.427Z,45.23
2023-04-13T00:56:03.128Z,45.23
2023-04-13T00:57:06.472Z,45.39
2023-04-13T00:58:12.566Z,45.44
2023-04-13T00:59:17.708Z,45.46
2023-04-13T01:00:24.130Z,45.49
2023-04-13T01:01:29.563Z,45.50
2023-04-13T01:02:32.403Z,45.53
2023-04-13T01:03:37.312Z,45.57
2023-04-13T01:04:40.891Z,45.60
2023-04-13T01:05:55.964Z,45.56
2023-04-13T01:08:35.148Z,45.64
2023-04-13T01:11:05.206Z,45.67
2023-04-13T01:12:15.788Z,45.68
2023-04-13T01:13:20.716Z,45.72
2023-04-13T01:16:05.063Z,45.85
2023-04-13T01:17:23.756Z,45.79
2023-04-13T01:18:27.138Z,45.85
2023-04-13T01:19:50.622Z,45.82
2023-04-13T01:20:54.483Z,45.85
2023-04-13T01:21:57.811Z,45.93
2023-04-13T01:23:02.383Z,45.95
2023-04-13T01:24:08.758Z,45.96
2023-04-13T01:25:31.192Z,45.95
2023-04-13T01:28:02.060Z,45.92
2023-04-13T01:29:06.726Z,45.91
2023-04-13T01:30:12.668Z,45.92
2023-04-13T01:31:16.550Z,45.92
2023-04-13T01:32:20.719Z,45.98
2023-04-13T01:33:24.989Z,45.97
2023-04-13T01:34:28.333Z,46.00
2023-04-13T01:35:31.883Z,46.03
2023-04-13T01:36:36.062Z,46.02
2023-04-13T01:37:44.651Z,46.04
2023-04-13T01:38:49.842Z,46.03
2023-04-13T01:39:52.971Z,46.04
2023-04-13T01:41:00.906Z,46.02
2023-04-13T01:42:07.606Z,46.01
2023-04-13T01:43:11.136Z,46.05
2023-04-13T01:44:18.801Z,46.03
2023-04-13T01:46:52.146Z,46.07
2023-04-13T01:49:35.477Z,46.07
2023-04-13T01:50:47.948Z,46.07
2023-04-13T01:51:52.937Z,46.08
2023-04-13T01:53:00.807Z,46.07
2023-04-13T01:54:12.271Z,46.08
2023-04-13T01:55:16.303Z,46.08
2023-04-13T01:56:22.395Z,46.12
2023-04-13T01:57:27.612Z,46.13
2023-04-13T01:58:32.976Z,46.16
2023-04-13T01:59:37.689Z,46.15
2023-04-13T02:00:42.553Z,46.15
2023-04-13T02:01:47.325Z,46.19
2023-04-13T02:02:52.045Z,46.19
2023-04-13T02:03:57.124Z,46.20
2023-04-13T02:05:03.163Z,46.21
2023-04-13T02:06:07.012Z,46.20
2023-04-13T02:07:14.011Z,46.27
2023-04-13T02:08:20.623Z,46.30
2023-04-13T02:09:25.188Z,46.36
2023-04-13T02:10:30.965Z,46.37
2023-04-13T02:11:36.201Z,46.35
2023-04-13T02:12:41.514Z,46.33
2023-04-13T02:13:46.765Z,46.33
2023-04-13T02:14:51.270Z,46.35
2023-04-13T02:15:56.018Z,46.32
2023-04-13T02:17:00.101Z,46.33
2023-04-13T02:18:04.297Z,46.33
2023-04-13T02:19:07.544Z,46.35
2023-04-13T02:20:11.697Z,46.36
2023-04-13T02:21:15.898Z,46.31
2023-04-13T02:22:19.005Z,46.15
2023-04-13T02:23:23.506Z,46.15
2023-04-13T02:24:26.447Z,46.33
2023-04-13T02:25:30.805Z,46.33
2023-04-13T02:26:37.726Z,46.35
2023-04-13T02:27:42.262Z,46.35
2023-04-13T02:28:45.777Z,46.32
2023-04-13T02:29:52.319Z,46.38
2023-04-13T02:30:55.903Z,46.40
2023-04-13T02:32:00.188Z,46.42
2023-04-13T02:33:03.732Z,46.48
2023-04-13T02:34:08.343Z,46.47
2023-04-13T02:35:11.964Z,46.49
2023-04-13T02:36:18.064Z,46.51
2023-04-13T02:37:22.965Z,46.51
2023-04-13T02:38:30.306Z,46.54
2023-04-13T02:39:36.692Z,46.64
2023-04-13T02:40:40.320Z,46.70
2023-04-13T02:41:43.670Z,46.74
2023-04-13T02:42:50.289Z,46.86
2023-04-13T02:43:53.335Z,46.95
2023-04-13T02:44:58.745Z,47.10
2023-04-13T02:46:02.085Z,47.18
2023-04-13T02:47:07.107Z,47.29
2023-04-13T02:48:10.182Z,47.35
2023-04-13T02:49:13.707Z,47.43
2023-04-13T02:50:18.656Z,47.55
2023-04-13T02:51:24.270Z,47.60
2023-04-13T02:52:27.234Z,47.73
2023-04-13T02:53:33.033Z,47.75
2023-04-13T02:54:37.836Z,47.84
2023-04-13T02:55:41.366Z,47.95
2023-04-13T02:56:46.987Z,47.92
2023-04-13T02:57:51.962Z,47.95
2023-04-13T02:58:56.328Z,47.97
2023-04-13T03:00:01.738Z,48.02
2023-04-13T03:01:08.328Z,48.05
2023-04-13T03:02:14.287Z,48.16
2023-04-13T03:03:18.525Z,48.20
2023-04-13T03:04:22.641Z,48.30
2023-04-13T03:05:28.397Z,48.35
2023-04-13T03:06:32.923Z,48.37
2023-04-13T03:07:36.590Z,48.43
2023-04-13T03:08:40.895Z,48.43
2023-04-13T03:09:47.360Z,48.50
2023-04-13T03:10:51.763Z,48.57
2023-04-13T03:11:56.280Z,48.57
2023-04-13T03:13:00.697Z,48.58
2023-04-13T03:14:03.842Z,48.63
2023-04-13T03:15:11.661Z,48.65
2023-04-13T03:16:17.952Z,48.60
2023-04-13T03:17:21.893Z,48.63
2023-04-13T03:18:24.943Z,48.66
2023-04-13T03:19:28.890Z,48.65
2023-04-13T03:20:34.743Z,48.65
2023-04-13T03:21:37.642Z,48.66
2023-04-13T03:22:44.534Z,48.67
2023-04-13T03:23:48.348Z,48.65
2023-04-13T03:24:52.031Z,48.70
2023-04-13T03:25:57.198Z,48.71
2023-04-13T03:27:02.013Z,48.71
2023-04-13T03:28:07.203Z,48.70
2023-04-13T03:29:13.021Z,48.69
2023-04-13T03:30:18.116Z,48.69
2023-04-13T03:31:23.939Z,48.69
2023-04-13T03:32:27.761Z,48.70
2023-04-13T03:33:32.523Z,48.70
2023-04-13T03:34:39.948Z,48.77
2023-04-13T03:35:44.490Z,48.74
2023-04-13T03:36:56.784Z,48.74
2023-04-13T03:38:00.455Z,48.68
2023-04-13T03:39:10.867Z,48.69
2023-04-13T03:40:15.685Z,48.70
2023-04-13T03:41:20.384Z,48.68
2023-04-13T03:42:23.449Z,48.70
2023-04-13T03:43:28.499Z,48.74
2023-04-13T03:44:39.062Z,48.78
2023-04-13T03:45:42.112Z,48.76
2023-04-13T03:46:46.775Z,48.74
2023-04-13T03:47:52.451Z,48.76
2023-04-13T03:48:56.622Z,48.70
2023-04-13T03:50:03.188Z,48.67
2023-04-13T03:51:08.822Z,48.69
2023-04-13T03:52:19.182Z,48.69
2023-04-13T03:53:25.286Z,49.97
2023-04-13T03:54:30.307Z,49.85
2023-04-13T03:55:35.202Z,49.93
2023-04-13T03:56:41.729Z,50.03
2023-04-13T03:57:45.908Z,50.36
2023-04-13T03:58:51.131Z,50.38
2023-04-13T03:59:56.135Z,50.44
2023-04-13T04:01:01.146Z,52.05
2023-04-13T04:02:15.917Z,52.38
2023-04-13T04:03:19.022Z,52.50
2023-04-13T04:04:23.912Z,52.11
2023-04-13T04:05:27.034Z,51.95
2023-04-13T04:06:31.999Z,52.09
2023-04-13T04:07:40.183Z,52.04
2023-04-13T04:08:44.866Z,52.08
2023-04-13T04:11:04.056Z,52.39
2023-04-13T04:12:08.350Z,52.42
2023-04-13T04:13:16.159Z,52.50
2023-04-13T04:14:21.761Z,52.60
2023-04-13T04:15:28.144Z,52.57
2023-04-13T04:16:33.199Z,52.62
2023-04-13T04:17:41.754Z,52.77
2023-04-13T04:18:44.764Z,52.78
2023-04-13T04:19:50.279Z,52.83
2023-04-13T04:20:55.094Z,52.79
2023-04-13T04:22:03.618Z,52.81
2023-04-13T04:23:10.094Z,52.85
2023-04-13T04:24:23.809Z,53.00
2023-04-13T04:25:28.797Z,53.06
2023-04-13T04:26:32.460Z,52.91
2023-04-13T04:27:37.961Z,53.03
2023-04-13T04:28:43.134Z,53.03
2023-04-13T04:29:50.238Z,53.07
2023-04-13T04:30:54.946Z,53.31
2023-04-13T04:31:58.858Z,53.19
2023-04-13T04:33:01.955Z,53.32
2023-04-13T04:34:09.790Z,53.36
2023-04-13T04:35:13.708Z,53.36
2023-04-13T04:36:20.880Z,53.41
2023-04-13T04:37:26.824Z,53.50
2023-04-13T04:38:35.001Z,53.65
2023-04-13T04:39:41.581Z,53.65
2023-04-13T04:40:46.675Z,53.74
2023-04-13T04:41:57.750Z,53.77
2023-04-13T04:43:02.191Z,53.85
2023-04-13T04:44:08.928Z,53.83
2023-04-13T04:45:17.699Z,53.82
2023-04-13T04:46:26.053Z,53.73
2023-04-13T04:47:31.697Z,53.69
2023-04-13T04:48:39.420Z,53.76
2023-04-13T04:49:43.288Z,53.77
2023-04-13T04:50:48.434Z,53.75
2023-04-13T04:51:52.510Z,53.73
2023-04-13T04:52:56.810Z,53.71
2023-04-13T04:55:05.689Z,53.73
2023-04-13T04:56:10.684Z,53.82
2023-04-13T04:57:21.155Z,53.67
2023-04-13T04:58:25.721Z,53.67
2023-04-13T04:59:30.623Z,53.66
2023-04-13T05:00:35.339Z,53.71
2023-04-13T05:01:46.131Z,53.67
2023-04-13T05:02:50.348Z,53.77
2023-04-13T05:03:54.048Z,53.82
2023-04-13T05:05:08.667Z,53.80
2023-04-13T05:06:13.321Z,53.88
2023-04-13T05:07:17.253Z,53.82
2023-04-13T05:08:22.100Z,53.89
2023-04-13T05:09:26.143Z,53.94
2023-04-13T05:10:29.666Z,54.03
2023-04-13T05:11:34.757Z,54.05
2023-04-13T05:12:38.772Z,54.12
2023-04-13T05:13:41.530Z,54.16
2023-04-13T05:14:47.886Z,54.23
2023-04-13T05:15:52.733Z,54.23
2023-04-13T05:16:56.529Z,54.33
2023-04-13T05:18:01.833Z,54.30
2023-04-13T05:19:07.826Z,54.45
2023-04-13T05:20:22.815Z,54.43
2023-04-13T05:21:31.978Z,54.49
2023-04-13T05:22:36.241Z,54.45
2023-04-13T05:23:41.698Z,54.51
2023-04-13T05:24:45.456Z,54.55
2023-04-13T05:25:51.935Z,54.51
2023-04-13T05:26:58.444Z,54.54
2023-04-13T05:28:01.562Z,54.43
2023-04-13T05:29:15.394Z,54.38
2023-04-13T05:30:19.487Z,54.33
2023-04-13T05:31:24.488Z,54.23
2023-04-13T05:32:29.438Z,54.21
2023-04-13T05:33:34.462Z,54.16
2023-04-13T05:34:38.396Z,54.14
2023-04-13T05:35:46.642Z,54.04
2023-04-13T05:36:51.505Z,53.98
2023-04-13T05:37:57.211Z,53.94
2023-04-13T05:39:02.206Z,53.83
2023-04-13T05:40:12.029Z,53.81
2023-04-13T05:42:29.405Z,53.74
2023-04-13T05:43:32.106Z,53.67
2023-04-13T05:44:36.268Z,53.64
2023-04-13T05:45:39.560Z,53.59
2023-04-13T05:46:45.442Z,53.51
2023-04-13T05:47:50.222Z,53.46
2023-04-13T05:48:54.317Z,53.40
2023-04-13T05:49:58.417Z,53.39
2023-04-13T05:51:01.242Z,53.34
2023-04-13T05:53:22.051Z,53.29
2023-04-13T05:54:27.767Z,53.23
2023-04-13T05:55:31.859Z,53.18
2023-04-13T05:56:37.301Z,53.13
2023-04-13T05:57:42.415Z,53.12
2023-04-13T05:58:47.888Z,53.08
2023-04-13T05:59:53.459Z,53.05
2023-04-13T06:00:58.109Z,53.05
2023-04-13T06:02:05.294Z,53.03
2023-04-13T06:03:09.347Z,53.03
2023-04-13T06:04:15.251Z,53.06
2023-04-13T06:05:18.182Z,53.09
2023-04-13T06:06:21.699Z,53.14
2023-04-13T06:07:25.529Z,53.18
2023-04-13T06:08:30.605Z,53.18
2023-04-13T06:09:33.518Z,53.23
2023-04-13T06:10:37.197Z,53.18
2023-04-13T06:11:41.184Z,53.23
2023-04-13T06:12:46.526Z,53.20
2023-04-13T06:13:51.415Z,53.18
2023-04-13T06:14:55.247Z,53.18
2023-04-13T06:15:59.527Z,53.17
2023-04-13T06:17:02.944Z,53.13
2023-04-13T06:18:06.142Z,53.11
2023-04-13T06:19:08.948Z,53.10
2023-04-13T06:20:15.027Z,53.12
2023-04-13T06:21:20.378Z,53.06
2023-04-13T06:22:25.078Z,53.06
2023-04-13T06:23:28.215Z,53.04
2023-04-13T06:24:42.140Z,53.00
2023-04-13T06:25:45.440Z,52.98
2023-04-13T06:26:53.487Z,52.94
2023-04-13T06:27:57.175Z,52.89
2023-04-13T06:29:01.181Z,52.94
2023-04-13T06:30:06.449Z,52.88
2023-04-13T06:31:12.883Z,52.89
2023-04-13T06:32:16.940Z,52.85
2023-04-13T06:33:20.564Z,52.82
2023-04-13T06:34:24.749Z,52.78
2023-04-13T06:35:30.512Z,52.75
2023-04-13T06:36:34.078Z,52.71
2023-04-13T06:37:39.335Z,52.70
2023-04-13T06:38:44.868Z,52.70
2023-04-13T06:39:48.778Z,52.65
2023-04-13T06:40:52.354Z,52.62
2023-04-13T06:41:57.053Z,52.59
2023-04-13T06:43:29.169Z,52.56
2023-04-13T06:44:26.748Z,52.52
2023-04-13T06:45:33.078Z,52.50
2023-04-13T06:46:37.753Z,52.46
2023-04-13T06:47:43.240Z,52.46
2023-04-13T06:48:47.715Z,52.44
2023-04-13T06:49:52.715Z,52.40
2023-04-13T06:50:55.881Z,52.39
2023-04-13T06:51:59.357Z,52.38
2023-04-13T06:53:03.798Z,52.34
2023-04-13T06:54:06.424Z,52.34
2023-04-13T06:55:11.446Z,52.32
2023-04-13T06:56:17.530Z,52.39
2023-04-13T06:57:20.776Z,52.37
2023-04-13T06:58:23.777Z,52.39
2023-04-13T06:59:27.902Z,52.39
2023-04-13T07:00:32.603Z,52.39
2023-04-13T07:01:37.468Z,52.38
2023-04-13T07:02:41.686Z,52.37
2023-04-13T07:03:44.773Z,52.39
2023-04-13T07:04:48.928Z,52.42
2023-04-13T07:05:51.824Z,52.42
2023-04-13T07:06:55.474Z,52.55
2023-04-13T07:07:59.897Z,52.50
2023-04-13T07:09:02.859Z,52.47
2023-04-13T07:10:07.619Z,52.46
2023-04-13T07:11:10.945Z,52.46
2023-04-13T07:12:15.169Z,52.46
2023-04-13T07:13:18.853Z,52.44
2023-04-13T07:14:22.255Z,52.42
2023-04-13T07:15:28.256Z,52.42
2023-04-13T07:16:31.345Z,52.37
2023-04-13T07:17:34.789Z,52.32
2023-04-13T07:18:38.365Z,52.35
2023-04-13T07:19:46.627Z,52.33
2023-04-13T07:20:50.305Z,52.76
2023-04-13T07:21:54.049Z,52.81
2023-04-13T07:22:59.388Z,53.33
2023-04-13T07:24:03.399Z,53.47
2023-04-13T07:25:09.101Z,53.19
2023-04-13T07:26:15.318Z,53.26
2023-04-13T07:27:18.295Z,53.39
2023-04-13T07:28:22.373Z,53.48
2023-04-13T07:29:26.939Z,53.86
2023-04-13T07:30:32.967Z,53.86
2023-04-13T07:31:37.659Z,53.92
2023-04-13T07:32:41.307Z,54.23
2023-04-13T07:33:52.309Z,54.38
2023-04-13T07:36:11.608Z,55.16
2023-04-13T07:37:16.139Z,55.00
2023-04-13T07:38:21.356Z,55.10
2023-04-13T07:39:26.082Z,54.87
2023-04-13T07:40:31.494Z,55.01
2023-04-13T07:41:36.190Z,55.17
2023-04-13T07:42:40.790Z,55.10
2023-04-13T07:43:47.029Z,55.12
2023-04-13T07:44:51.792Z,55.10
2023-04-13T07:45:56.236Z,55.11
2023-04-13T07:47:00.699Z,54.56
2023-04-13T07:48:05.306Z,54.15
2023-04-13T07:49:09.515Z,53.84
2023-04-13T07:50:14.604Z,53.80
2023-04-13T07:51:18.729Z,53.49
2023-04-13T07:52:23.495Z,53.37
2023-04-13T07:53:26.800Z,53.41
2023-04-13T07:54:30.637Z,53.11
2023-04-13T07:55:36.748Z,52.87
2023-04-13T07:56:40.969Z,51.77
2023-04-13T07:57:44.893Z,51.38
2023-04-13T07:58:49.346Z,50.43
2023-04-13T07:59:53.880Z,50.55
2023-04-13T08:00:57.483Z,50.91
2023-04-13T08:02:00.318Z,50.91
2023-04-13T08:03:03.880Z,50.92
2023-04-13T08:04:07.435Z,50.95
2023-04-13T08:05:12.509Z,51.21
2023-04-13T08:06:17.294Z,51.54
2023-04-13T08:07:21.305Z,51.72
2023-04-13T08:08:24.339Z,52.00
2023-04-13T08:10:40.300Z,52.19
2023-04-13T08:11:44.608Z,52.06
2023-04-13T08:12:47.901Z,51.77
2023-04-13T08:13:52.464Z,51.87
2023-04-13T08:14:55.813Z,51.90
2023-04-13T08:15:59.746Z,52.29
2023-04-13T08:18:21.666Z,52.26
2023-04-13T08:19:29.541Z,52.31
2023-04-13T08:20:36.324Z,52.41
2023-04-13T08:21:42.362Z,52.49
2023-04-13T08:22:46.942Z,52.53
2023-04-13T08:23:52.129Z,52.74
2023-04-13T08:24:56.393Z,52.81
2023-04-13T08:26:01.737Z,52.95
2023-04-13T08:27:06.883Z,53.11
2023-04-13T08:28:09.809Z,53.05
2023-04-13T08:29:13.910Z,52.96
2023-04-13T08:30:19.820Z,53.38
2023-04-13T08:31:24.790Z,53.69
2023-04-13T08:32:33.699Z,53.79
2023-04-13T08:33:50.851Z,54.01
2023-04-13T08:34:56.646Z,54.15
2023-04-13T08:36:00.497Z,54.32
2023-04-13T08:37:04.097Z,54.25
2023-04-13T08:38:09.112Z,54.32
2023-04-13T08:39:14.107Z,54.57
2023-04-13T08:40:19.408Z,54.59
2023-04-13T08:41:22.475Z,54.82
2023-04-13T08:42:29.457Z,54.87
2023-04-13T08:43:35.333Z,55.08
2023-04-13T08:44:42.451Z,54.39
2023-04-13T08:45:47.010Z,54.90
2023-04-13T08:46:53.062Z,55.27
2023-04-13T08:48:04.762Z,55.89
2023-04-13T08:49:11.102Z,56.24
2023-04-13T08:50:33.828Z,56.47
2023-04-13T08:51:39.016Z,56.87
2023-04-13T08:53:56.155Z,56.23
2023-04-13T08:55:05.316Z,56.34
2023-04-13T08:56:12.528Z,56.59
2023-04-13T08:57:15.834Z,56.29
2023-04-13T08:58:20.064Z,56.11
2023-04-13T08:59:22.700Z,55.95
2023-04-13T09:00:26.226Z,55.85
2023-04-13T09:01:30.109Z,55.68
2023-04-13T09:02:34.919Z,55.64
2023-04-13T09:03:54.011Z,55.45
2023-04-13T09:05:00.009Z,55.87
2023-04-13T09:06:10.238Z,56.37
2023-04-13T09:07:17.155Z,56.20
2023-04-13T09:08:22.125Z,56.19
2023-04-13T09:09:27.767Z,55.76
2023-04-13T09:10:32.184Z,55.52
2023-04-13T09:11:35.751Z,55.78
2023-04-13T09:12:40.645Z,55.53
2023-04-13T09:13:52.369Z,55.50
2023-04-13T09:14:55.421Z,55.46
2023-04-13T09:17:27.154Z,55.94
2023-04-13T09:18:35.509Z,55.82
2023-04-13T09:19:40.202Z,55.59
2023-04-13T09:20:47.516Z,55.49
2023-04-13T09:21:52.295Z,55.41
2023-04-13T09:22:58.557Z,55.28
2023-04-13T09:24:01.737Z,55.41
2023-04-13T09:25:07.564Z,55.61
2023-04-13T09:26:14.376Z,55.32
2023-04-13T09:27:23.469Z,55.37
2023-04-13T09:28:28.304Z,55.10
2023-04-13T09:29:32.175Z,54.72
2023-04-13T09:30:35.898Z,54.62
2023-04-13T09:31:40.662Z,55.25
2023-04-13T09:32:44.160Z,55.35
2023-04-13T09:35:04.605Z,54.83
2023-04-13T09:36:14.872Z,54.24
2023-04-13T09:37:18.281Z,54.91
2023-04-13T09:39:34.058Z,52.37
2023-04-13T09:40:41.034Z,51.29
2023-04-13T09:43:00.893Z,51.95
2023-04-13T09:44:20.981Z,51.83
2023-04-13T09:45:24.310Z,51.36
2023-04-13T09:46:27.409Z,52.90
2023-04-13T09:47:38.393Z,53.12
2023-04-13T09:48:41.131Z,52.97
2023-04-13T09:49:44.068Z,53.02
2023-04-13T09:50:59.223Z,52.70
2023-04-13T09:52:02.619Z,53.16
2023-04-13T09:53:06.070Z,53.26
2023-04-13T09:55:22.007Z,53.23
2023-04-13T09:56:26.584Z,53.31
2023-04-13T09:57:32.195Z,53.50
2023-04-13T09:58:45.367Z,53.65
2023-04-13T09:59:48.776Z,52.80
2023-04-13T10:00:52.541Z,52.80
2023-04-13T10:01:55.436Z,52.08
2023-04-13T10:03:00.537Z,52.50
2023-04-13T10:04:09.648Z,53.03
2023-04-13T10:05:13.453Z,52.99
2023-04-13T10:06:17.169Z,53.43
2023-04-13T10:07:21.283Z,53.72
2023-04-13T10:08:36.596Z,53.86
2023-04-13T10:09:31.642Z,51.94
2023-04-13T10:10:34.956Z,53.08
2023-04-13T10:11:40.155Z,53.13
2023-04-13T10:12:46.075Z,53.52
2023-04-13T10:15:13.799Z,53.07
2023-04-13T10:16:44.811Z,52.78
2023-04-13T10:18:00.819Z,52.80
2023-04-13T10:20:27.245Z,53.18
2023-04-13T10:22:47.544Z,54.21
2023-04-13T10:23:51.422Z,55.30
2023-04-13T10:24:54.669Z,54.52
2023-04-13T10:25:59.551Z,56.40
2023-04-13T10:28:26.687Z,57.35
2023-04-13T10:29:31.252Z,57.06
2023-04-13T10:30:40.189Z,57.08
2023-04-13T10:31:50.859Z,57.35
2023-04-13T10:34:27.728Z,57.89
2023-04-13T10:35:30.710Z,57.80
2023-04-13T10:37:57.860Z,58.29
2023-04-13T10:39:03.194Z,57.89
2023-04-13T10:40:09.512Z,58.06
2023-04-13T10:41:24.210Z,57.96
2023-04-13T10:42:28.587Z,57.89
2023-04-13T10:43:33.526Z,57.80
2023-04-13T10:44:51.382Z,57.61
2023-04-13T10:47:32.992Z,56.82
2023-04-13T10:48:36.701Z,56.66
2023-04-13T10:49:41.198Z,56.63
2023-04-13T10:50:45.357Z,56.61
2023-04-13T10:51:49.773Z,56.61
2023-04-13T10:53:06.155Z,56.73
2023-04-13T10:54:09.802Z,56.74
2023-04-13T10:55:13.400Z,56.67
2023-04-13T10:57:33.795Z,56.94
2023-04-13T10:58:37.099Z,56.94
2023-04-13T10:59:56.165Z,57.12
2023-04-13T11:00:50.005Z,57.28
2023-04-13T11:01:53.641Z,57.28
2023-04-13T11:03:00.569Z,57.30
2023-04-13T11:04:09.260Z,57.77
2023-04-13T11:05:20.131Z,58.70
2023-04-13T11:06:23.693Z,58.98
2023-04-13T11:07:28.502Z,58.93
2023-04-13T11:08:32.845Z,58.95
2023-04-13T11:09:36.905Z,59.02
2023-04-13T11:10:40.673Z,59.24
2023-04-13T11:11:44.306Z,59.25
2023-04-13T11:12:51.879Z,59.30
2023-04-13T11:13:55.625Z,59.49
2023-04-13T11:14:58.622Z,59.46
2023-04-13T11:16:02.929Z,59.61
2023-04-13T11:17:07.582Z,59.61
2023-04-13T11:18:11.933Z,59.56
2023-04-13T11:19:14.982Z,59.70
2023-04-13T11:20:19.148Z,59.65
2023-04-13T11:21:22.950Z,59.42
2023-04-13T11:22:29.072Z,59.22
2023-04-13T11:23:34.052Z,59.13
2023-04-13T11:24:37.242Z,58.79
2023-04-13T11:25:54.902Z,58.67
2023-04-13T11:26:59.578Z,58.61
2023-04-13T11:28:03.298Z,58.48
2023-04-13T11:29:07.214Z,58.38
2023-04-13T11:30:12.423Z,58.59
2023-04-13T11:31:16.146Z,58.70
2023-04-13T11:32:19.136Z,58.82
2023-04-13T11:33:29.979Z,58.83
2023-04-13T11:34:33.756Z,58.85
2023-04-13T11:38:17.300Z,59.16
2023-04-13T11:39:20.795Z,59.08
2023-04-13T11:40:25.104Z,59.13
2023-04-13T11:41:29.975Z,59.06
2023-04-13T11:42:32.973Z,59.02
2023-04-13T11:43:35.577Z,58.97
2023-04-13T11:45:50.893Z,59.08
2023-04-13T11:46:57.399Z,58.96
2023-04-13T11:48:02.653Z,58.98
2023-04-13T11:49:06.616Z,58.97
2023-04-13T11:50:11.529Z,58.97
2023-04-13T11:51:15.799Z,58.97
2023-04-13T11:52:19.277Z,58.97
2023-04-13T11:53:22.976Z,59.01
2023-04-13T11:54:26.621Z,58.91
2023-04-13T11:55:31.345Z,58.81
2023-04-13T11:56:34.687Z,58.69
2023-04-13T11:57:38.004Z,58.76
2023-04-13T11:58:43.234Z,58.84
2023-04-13T12:01:12.792Z,59.07
2023-04-13T12:02:20.882Z,58.97
2023-04-13T12:04:26.765Z,59.01
2023-04-13T12:05:32.318Z,59.07
2023-04-13T12:06:36.620Z,59.07
2023-04-13T12:07:40.866Z,59.07
2023-04-13T12:08:49.593Z,59.13
2023-04-13T12:09:56.567Z,59.18
2023-04-13T12:11:24.923Z,59.12
2023-04-13T12:13:35.364Z,59.12
2023-04-13T12:15:43.220Z,58.85
2023-04-13T12:17:03.184Z,58.85
2023-04-13T12:17:49.489Z,58.87
2023-04-13T12:18:48.065Z,58.89
2023-04-13T12:19:57.337Z,58.90
2023-04-13T12:22:04.295Z,58.76
2023-04-13T12:23:23.453Z,58.68
2023-04-13T12:25:57.293Z,58.60
2023-04-13T12:28:08.339Z,58.40
2023-04-13T12:29:11.298Z,58.30
2023-04-13T12:30:15.747Z,57.99
2023-04-13T12:31:18.788Z,57.81
2023-04-13T12:32:21.959Z,57.83
2023-04-13T12:33:25.323Z,57.76
2023-04-13T12:34:29.083Z,57.70
2023-04-13T12:35:32.009Z,57.59
2023-04-13T12:36:36.982Z,57.49
2023-04-13T12:37:41.537Z,57.43
2023-04-13T12:38:45.453Z,57.30
2023-04-13T12:39:48.632Z,57.17
2023-04-13T12:40:58.268Z,57.01
2023-04-13T12:42:01.524Z,56.92
2023-04-13T12:43:04.435Z,56.85
2023-04-13T12:44:07.205Z,56.75
2023-04-13T12:45:11.778Z,56.70
2023-04-13T12:46:15.068Z,56.62
2023-04-13T12:47:18.640Z,56.56
2023-04-13T12:48:25.464Z,56.51
2023-04-13T12:49:29.365Z,56.43
2023-04-13T12:50:33.702Z,56.30
2023-04-13T12:51:36.811Z,56.27
2023-04-13T12:52:41.722Z,56.19
2023-04-13T12:53:44.701Z,56.17
2023-04-13T12:54:47.777Z,56.13
2023-04-13T12:55:50.766Z,56.11
2023-04-13T12:56:54.791Z,56.04
2023-04-13T12:57:58.087Z,56.04
2023-04-13T12:59:02.722Z,56.00
2023-04-13T13:00:10.178Z,56.06
2023-04-13T13:01:14.050Z,56.13
2023-04-13T13:02:18.312Z,56.21
2023-04-13T13:03:23.855Z,56.27
2023-04-13T13:04:28.432Z,56.07
2023-04-13T13:05:32.287Z,56.38
2023-04-13T13:06:36.124Z,56.58
2023-04-13T13:07:39.229Z,56.77
2023-04-13T13:08:43.353Z,56.80
2023-04-13T13:09:47.148Z,56.83
2023-04-13T13:10:51.580Z,56.81
2023-04-13T13:11:54.109Z,56.96
2023-04-13T13:13:00.966Z,56.94
2023-04-13T13:14:04.218Z,56.94
2023-04-13T13:15:09.972Z,57.08
2023-04-13T13:16:14.291Z,57.14
2023-04-13T13:17:17.710Z,57.14
2023-04-13T13:18:21.404Z,57.18
2023-04-13T13:19:24.920Z,57.19
2023-04-13T13:20:28.404Z,57.23
2023-04-13T13:21:31.627Z,57.26
2023-04-13T13:22:34.504Z,57.34
2023-04-13T13:23:37.672Z,57.35
2023-04-13T13:24:40.675Z,57.43
2023-04-13T13:25:54.277Z,57.46
2023-04-13T13:27:17.058Z,57.51
2023-04-13T13:28:13.349Z,57.51
2023-04-13T13:29:00.184Z,57.58
2023-04-13T13:30:04.188Z,57.64
2023-04-13T13:31:08.386Z,57.72
2023-04-13T13:32:11.723Z,57.77
2023-04-13T13:33:16.896Z,57.76
2023-04-13T13:34:20.151Z,57.82
2023-04-13T13:35:23.222Z,57.92
2023-04-13T13:36:27.218Z,57.97
2023-04-13T13:37:30.106Z,57.34
2023-04-13T13:38:35.862Z,57.65
2023-04-13T13:39:40.961Z,57.83
2023-04-13T13:40:45.794Z,57.93
2023-04-13T13:41:49.257Z,58.04
2023-04-13T13:42:53.885Z,58.14
2023-04-13T13:43:56.751Z,57.54
2023-04-13T13:45:00.603Z,57.82
2023-04-13T13:46:05.272Z,57.80
2023-04-13T13:47:09.218Z,57.82
2023-04-13T13:48:14.494Z,57.86
2023-04-13T13:49:20.138Z,57.82
2023-04-13T13:50:37.287Z,57.85
2023-04-13T13:51:41.161Z,57.73
2023-04-13T13:52:55.618Z,55.95
2023-04-13T13:53:51.922Z,55.60
2023-04-13T13:54:55.512Z,56.26
2023-04-13T13:55:58.781Z,56.34
2023-04-13T13:57:02.465Z,56.61
2023-04-13T13:58:06.121Z,56.73
2023-04-13T13:59:09.947Z,56.66
2023-04-13T14:00:17.481Z,56.49
2023-04-13T14:01:20.902Z,56.49
2023-04-13T14:02:24.655Z,56.61
2023-04-13T14:03:27.477Z,56.27
2023-04-13T14:04:31.044Z,55.42
2023-04-13T14:05:36.267Z,55.34
2023-04-13T14:06:39.185Z,55.34
2023-04-13T14:08:58.370Z,53.79
2023-04-13T14:10:02.870Z,53.95
2023-04-13T14:11:07.336Z,53.92
2023-04-13T14:12:10.050Z,53.89
2023-04-13T14:13:13.756Z,54.65
2023-04-13T14:14:21.665Z,54.94
2023-04-13T14:15:22.424Z,54.95
2023-04-13T14:16:25.676Z,54.74
2023-04-13T14:17:30.503Z,54.23
2023-04-13T14:18:33.440Z,53.46
2023-04-13T14:19:36.585Z,54.21
2023-04-13T14:20:40.336Z,54.42
2023-04-13T14:21:43.575Z,54.08
2023-04-13T14:22:46.330Z,54.45
2023-04-13T14:23:50.134Z,54.24
2023-04-13T14:24:54.241Z,54.47
2023-04-13T14:25:56.785Z,54.48
2023-04-13T14:28:11.326Z,53.21
2023-04-13T14:29:14.799Z,52.07
2023-04-13T14:30:17.883Z,52.46
2023-04-13T14:31:20.616Z,52.29
2023-04-13T14:32:24.815Z,52.06
2023-04-13T14:33:28.375Z,52.49
2023-04-13T14:34:31.106Z,52.66
2023-04-13T14:35:33.981Z,51.33
2023-04-13T14:36:37.228Z,51.75
2023-04-13T14:37:40.609Z,52.27
2023-04-13T14:38:43.992Z,52.28
2023-04-13T14:39:46.883Z,52.40
2023-04-13T14:40:50.211Z,52.26
2023-04-13T14:41:56.816Z,52.15
2023-04-13T14:43:00.185Z,52.24
2023-04-13T14:44:02.779Z,52.10
2023-04-13T14:45:08.279Z,52.03
2023-04-13T14:46:12.931Z,51.96
2023-04-13T14:47:15.903Z,51.51
2023-04-13T14:48:19.335Z,51.61
2023-04-13T14:49:22.738Z,51.02
2023-04-13T14:50:26.659Z,51.27
2023-04-13T14:51:31.333Z,51.35
2023-04-13T14:52:34.073Z,51.26
2023-04-13T14:53:38.238Z,51.25